createdAt,value
2022-07-31T00:00:19.850Z,95684.72
2022-07-31T00:02:46.560Z,95687.38
2022-07-31T00:05:13.443Z,95681.44
2022-07-31T00:07:40.533Z,95679.41
2022-07-31T00:10:07.521Z,95684.88
2022-07-31T00:12:34.710Z,95687.59
2022-07-31T00:15:07.502Z,95691.44
2022-07-31T00:17:34.269Z,95692.59
2022-07-31T00:20:01.124Z,95690.94
2022-07-31T00:22:27.913Z,95686.56
2022-07-31T00:24:54.448Z,95689.59
2022-07-31T00:27:21.093Z,95684.41
2022-07-31T00:29:47.750Z,95684.75
2022-07-31T00:32:14.559Z,95683.44
2022-07-31T00:34:41.745Z,95690.06
2022-07-31T00:37:09.087Z,95687.63
2022-07-31T00:39:35.816Z,95690.31
2022-07-31T00:42:03.022Z,95680.75
2022-07-31T00:44:29.664Z,95680.69
2022-07-31T00:46:58.735Z,95677.09
2022-07-31T00:49:27.526Z,95674.63
2022-07-31T00:52:05.308Z,95674.91
2022-07-31T00:54:32.636Z,95666.94
2022-07-31T00:56:59.279Z,95678.25
2022-07-31T00:59:27.742Z,95680.38
2022-07-31T01:01:56.446Z,95686.34
2022-07-31T01:04:23.445Z,95683.16
2022-07-31T01:06:50.710Z,95683.91
2022-07-31T01:09:17.339Z,95687.78
2022-07-31T01:11:58.827Z,95679.47
2022-07-31T01:14:29.591Z,95679.84
2022-07-31T01:16:59.805Z,95673.94
2022-07-31T01:19:38.509Z,95691.56
2022-07-31T01:22:39.572Z,95685.22
2022-07-31T01:25:16.858Z,95682.47
2022-07-31T01:27:49.790Z,95681.28
2022-07-31T01:30:17.918Z,95673.88
2022-07-31T01:32:48.756Z,95680.50
2022-07-31T01:35:32.688Z,95685.22
2022-07-31T01:38:10.598Z,95682.47
2022-07-31T01:40:45.997Z,95669.94
2022-07-31T01:43:22.399Z,95677.03
2022-07-31T01:45:55.706Z,95676.66
2022-07-31T01:48:23.790Z,95675.16
2022-07-31T01:50:52.651Z,95672.84
2022-07-31T01:53:21.721Z,95670.94
2022-07-31T01:56:02.798Z,95665.06
2022-07-31T01:58:36.678Z,95670.56
2022-07-31T02:01:11.446Z,95671.38
2022-07-31T02:03:56.307Z,95673.69
2022-07-31T02:06:26.777Z,95666.63
2022-07-31T02:08:55.547Z,95672.13
2022-07-31T02:11:23.812Z,95665.81
2022-07-31T02:13:52.261Z,95661.47
2022-07-31T02:16:19.481Z,95666.41
2022-07-31T02:18:50.602Z,95666.97
2022-07-31T02:21:25.274Z,95667.41
2022-07-31T02:23:52.012Z,95664.28
2022-07-31T02:26:19.972Z,95666.69
2022-07-31T02:28:48.146Z,95662.78
2022-07-31T02:31:16.943Z,95653.81
2022-07-31T02:33:48.140Z,95656.19
2022-07-31T02:36:17.215Z,95659.00
2022-07-31T02:38:44.675Z,95654.72
2022-07-31T02:41:14.344Z,95654.34
2022-07-31T02:43:42.338Z,95662.69
2022-07-31T02:46:18.991Z,95643.09
2022-07-31T02:48:46.470Z,95649.78
2022-07-31T02:51:15.055Z,95649.44
2022-07-31T02:53:42.222Z,95650.25
2022-07-31T02:56:10.229Z,95651.47
2022-07-31T02:58:40.519Z,95651.91
2022-07-31T03:01:07.697Z,95652.69
2022-07-31T03:03:36.352Z,95647.59
2022-07-31T03:06:03.553Z,95645.63
2022-07-31T03:08:31.100Z,95648.03
2022-07-31T03:11:02.592Z,95651.22
2022-07-31T03:13:31.921Z,95648.13
2022-07-31T03:15:59.658Z,95650.50
2022-07-31T03:18:27.006Z,95654.03
2022-07-31T03:20:55.139Z,95655.63
2022-07-31T03:23:24.254Z,95655.28
2022-07-31T03:25:57.024Z,95651.69
2022-07-31T03:28:23.563Z,95652.53
2022-07-31T03:30:55.275Z,95647.44
2022-07-31T03:33:24.879Z,95649.81
2022-07-31T03:35:51.828Z,95645.09
2022-07-31T03:38:39.736Z,95654.97
2022-07-31T03:41:06.137Z,95650.25
2022-07-31T03:43:47.112Z,95650.66
2022-07-31T03:46:19.767Z,95655.00
2022-07-31T03:48:47.923Z,95656.63
2022-07-31T03:51:15.860Z,95658.19
2022-07-31T03:53:43.325Z,95655.69
2022-07-31T03:56:19.013Z,95655.06
2022-07-31T03:58:49.745Z,95655.75
2022-07-31T04:01:20.749Z,95653.53
2022-07-31T04:03:49.282Z,95654.78
2022-07-31T04:06:28.434Z,95659.91
2022-07-31T04:08:55.956Z,95656.34
2022-07-31T04:11:23.452Z,95656.72
2022-07-31T04:13:50.053Z,95658.31
2022-07-31T04:16:16.705Z,95661.06
2022-07-31T04:18:43.621Z,95659.91
2022-07-31T04:21:17.863Z,95673.69
2022-07-31T04:23:48.913Z,95665.06
2022-07-31T04:26:42.928Z,95664.22
2022-07-31T04:29:09.600Z,95663.09
2022-07-31T04:31:36.362Z,95661.13
2022-07-31T04:34:04.916Z,95672.53
2022-07-31T04:36:32.091Z,95669.44
2022-07-31T04:39:00.181Z,95674.03
2022-07-31T04:41:27.376Z,95667.97
2022-07-31T04:43:54.200Z,95678.22
2022-07-31T04:46:21.094Z,95674.00
2022-07-31T04:48:49.195Z,95679.94
2022-07-31T04:51:22.478Z,95681.16
2022-07-31T04:53:50.526Z,95676.88
2022-07-31T04:56:19.742Z,95685.19
2022-07-31T04:58:46.384Z,95676.19
2022-07-31T05:01:13.010Z,95687.63
2022-07-31T05:03:43.044Z,95686.91
2022-07-31T05:06:11.090Z,95683.41
2022-07-31T05:08:39.455Z,95681.88
2022-07-31T05:11:07.124Z,95680.34
2022-07-31T05:13:33.937Z,95672.53
2022-07-31T05:16:00.565Z,95682.00
2022-07-31T05:18:27.515Z,95681.25
2022-07-31T05:21:14.285Z,95676.16
2022-07-31T05:24:02.343Z,95669.13
2022-07-31T05:26:45.566Z,95675.50
2022-07-31T05:29:12.283Z,95664.53
2022-07-31T05:31:38.872Z,95670.84
2022-07-31T05:34:26.520Z,95672.88
2022-07-31T05:36:53.948Z,95676.91
2022-07-31T05:39:22.781Z,95668.38
2022-07-31T05:42:07.901Z,95679.09
2022-07-31T05:44:52.923Z,95676.84
2022-07-31T05:47:19.638Z,95675.03
2022-07-31T05:49:46.258Z,95682.63
2022-07-31T05:52:12.799Z,95673.34
2022-07-31T05:54:39.642Z,95676.22
2022-07-31T05:57:33.534Z,95680.25
2022-07-31T06:00:03.794Z,95686.31
2022-07-31T06:02:38.537Z,95684.81
2022-07-31T06:05:25.106Z,95683.31
2022-07-31T06:07:52.130Z,95685.81
2022-07-31T06:10:21.177Z,95687.91
2022-07-31T06:12:48.806Z,95688.34
2022-07-31T06:15:18.924Z,95700.25
2022-07-31T06:17:45.784Z,95697.94
2022-07-31T06:20:23.811Z,95701.13
2022-07-31T06:22:50.476Z,95700.38
2022-07-31T06:25:18.484Z,95691.38
2022-07-31T06:27:52.011Z,95702.84
2022-07-31T06:30:23.656Z,95693.03
2022-07-31T06:32:50.281Z,95687.97
2022-07-31T06:35:17.008Z,95682.88
2022-07-31T06:38:03.876Z,95686.16
2022-07-31T06:40:40.023Z,95685.03
2022-07-31T06:43:33.668Z,95682.34
2022-07-31T06:46:18.851Z,95681.19
2022-07-31T06:49:11.708Z,95674.50
2022-07-31T06:51:39.198Z,95683.28
2022-07-31T06:54:07.979Z,95675.34
2022-07-31T06:56:36.302Z,95674.59
2022-07-31T06:59:04.277Z,95676.19
2022-07-31T07:01:31.376Z,95678.16
2022-07-31T07:03:58.252Z,95680.56
2022-07-31T07:06:25.112Z,95686.09
2022-07-31T07:08:52.569Z,95682.94
2022-07-31T07:11:21.604Z,95690.84
2022-07-31T07:13:51.228Z,95691.63
2022-07-31T07:16:19.036Z,95694.44
2022-07-31T07:18:45.896Z,95696.03
2022-07-31T07:21:12.859Z,95688.50
2022-07-31T07:23:40.000Z,95695.22
2022-07-31T07:26:22.556Z,95698.00
2022-07-31T07:28:49.296Z,95692.88
2022-07-31T07:31:15.969Z,95688.91
2022-07-31T07:33:43.161Z,95692.06
2022-07-31T07:36:21.766Z,95689.28
2022-07-31T07:38:55.036Z,95692.06
2022-07-31T07:41:26.348Z,95700.00
2022-07-31T07:43:53.785Z,95692.06
2022-07-31T07:46:23.859Z,95690.50
2022-07-31T07:48:54.102Z,95688.09
2022-07-31T07:51:37.895Z,95688.91
2022-07-31T07:54:40.153Z,95682.94
2022-07-31T07:57:22.148Z,95682.53
2022-07-31T07:59:54.765Z,95686.09
2022-07-31T08:03:02.665Z,95685.72
2022-07-31T08:05:39.916Z,95683.31
2022-07-31T08:08:06.622Z,95680.94
2022-07-31T08:10:53.456Z,95673.78
2022-07-31T08:13:25.482Z,95670.56
2022-07-31T08:16:10.477Z,95670.16
2022-07-31T08:18:45.706Z,95672.13
2022-07-31T08:21:12.371Z,95667.34
2022-07-31T08:23:38.911Z,95672.88
2022-07-31T08:26:06.765Z,95663.34
2022-07-31T08:28:34.629Z,95664.09
2022-07-31T08:31:03.484Z,95664.03
2022-07-31T08:33:31.998Z,95665.16
2022-07-31T08:35:59.353Z,95664.31
2022-07-31T08:38:26.052Z,95663.91
2022-07-31T08:41:13.521Z,95667.44
2022-07-31T08:44:02.895Z,95672.13
2022-07-31T08:46:29.252Z,95676.47
2022-07-31T08:48:58.021Z,95664.53
2022-07-31T08:51:25.790Z,95666.09
2022-07-31T08:54:11.449Z,95662.13
2022-07-31T08:56:38.957Z,95663.72
2022-07-31T08:59:06.630Z,95664.47
2022-07-31T09:01:34.982Z,95658.09
2022-07-31T09:04:01.968Z,95658.06
2022-07-31T09:06:28.852Z,95664.41
2022-07-31T09:08:56.828Z,95654.06
2022-07-31T09:11:23.356Z,95653.72
2022-07-31T09:14:01.683Z,95648.41
2022-07-31T09:16:51.344Z,95648.38
2022-07-31T09:19:51.981Z,95646.75
2022-07-31T09:22:27.169Z,95637.16
2022-07-31T09:25:14.107Z,95637.06
2022-07-31T09:27:40.716Z,95643.69
2022-07-31T09:30:08.692Z,95636.03
2022-07-31T09:33:16.614Z,95639.16
2022-07-31T09:36:13.078Z,95627.09
2022-07-31T09:38:44.019Z,95625.03
2022-07-31T09:42:02.059Z,95627.34
2022-07-31T09:44:35.736Z,95631.63
2022-07-31T09:47:02.634Z,95623.91
2022-07-31T09:49:34.223Z,95623.03
2022-07-31T09:52:01.541Z,95624.91
2022-07-31T09:54:30.772Z,95627.66
2022-07-31T09:57:10.964Z,95617.66
2022-07-31T09:59:40.292Z,95620.84
2022-07-31T10:02:08.921Z,95613.69
2022-07-31T10:04:38.015Z,95618.06
2022-07-31T10:07:07.959Z,95618.06
2022-07-31T10:09:37.221Z,95618.06
2022-07-31T10:12:31.373Z,95610.84
2022-07-31T10:15:04.964Z,95601.72
2022-07-31T10:17:36.701Z,95595.78
2022-07-31T10:20:19.973Z,95608.88
2022-07-31T10:23:15.302Z,95598.03
2022-07-31T10:25:53.806Z,95596.03
2022-07-31T10:28:22.292Z,95596.88
2022-07-31T10:30:49.729Z,95591.31
2022-07-31T10:33:42.038Z,95598.03
2022-07-31T10:36:27.283Z,95600.31
2022-07-31T10:39:22.599Z,95597.75
2022-07-31T10:42:27.648Z,95601.66
2022-07-31T10:45:03.949Z,95605.19
2022-07-31T10:47:40.144Z,95587.63
2022-07-31T10:50:34.043Z,95584.44
2022-07-31T10:53:12.283Z,95584.78
2022-07-31T10:56:05.768Z,95584.72
2022-07-31T10:59:12.171Z,95580.66
2022-07-31T11:02:05.987Z,95581.31
2022-07-31T11:04:41.340Z,95576.50
2022-07-31T11:07:26.532Z,95573.22
2022-07-31T11:10:21.638Z,95570.28
2022-07-31T11:13:10.119Z,95573.31
2022-07-31T11:15:47.507Z,95569.16
2022-07-31T11:18:39.994Z,95572.72
2022-07-31T11:21:35.944Z,95571.13
2022-07-31T11:24:03.001Z,95575.19
2022-07-31T11:26:40.953Z,95566.78
2022-07-31T11:29:59.152Z,95562.75
2022-07-31T11:32:06.299Z,95559.28
2022-07-31T11:34:50.063Z,95561.63
2022-07-31T11:37:18.969Z,95559.50
2022-07-31T11:39:51.636Z,95560.56
2022-07-31T11:42:27.254Z,95567.94
2022-07-31T11:45:11.155Z,95556.63
2022-07-31T11:48:12.643Z,95560.34
2022-07-31T11:50:28.979Z,95551.78
2022-07-31T11:53:02.848Z,95554.78
2022-07-31T11:55:29.825Z,95546.16
2022-07-31T11:57:57.141Z,95556.75
2022-07-31T12:00:29.677Z,95562.16
2022-07-31T12:02:57.400Z,95556.84
2022-07-31T12:05:37.599Z,95558.78
2022-07-31T12:08:07.304Z,95563.78
2022-07-31T12:10:34.482Z,95551.75
2022-07-31T12:13:02.339Z,95561.28
2022-07-31T12:15:28.824Z,95547.81
2022-07-31T12:18:03.858Z,95549.91
2022-07-31T12:20:36.211Z,95551.41
2022-07-31T12:23:05.688Z,95552.69
2022-07-31T12:25:43.423Z,95540.94
2022-07-31T12:28:12.998Z,95544.41
2022-07-31T12:30:39.702Z,95537.19
2022-07-31T12:33:07.903Z,95534.09
2022-07-31T12:35:56.378Z,95540.03
2022-07-31T12:38:45.575Z,95521.97
2022-07-31T12:41:14.472Z,95528.59
2022-07-31T12:43:51.465Z,95524.94
2022-07-31T12:46:34.041Z,95513.66
2022-07-31T12:49:00.665Z,95514.81
2022-07-31T12:51:46.128Z,95525.47
2022-07-31T12:54:17.577Z,95519.88
2022-07-31T12:56:45.143Z,95524.59
2022-07-31T12:59:11.874Z,95512.88
2022-07-31T13:01:38.784Z,95505.28
2022-07-31T13:04:08.102Z,95513.13
2022-07-31T13:06:46.439Z,95503.34
2022-07-31T13:09:13.009Z,95497.16
2022-07-31T13:11:46.314Z,95502.91
2022-07-31T13:14:19.381Z,95495.88
2022-07-31T13:16:46.471Z,95496.91
2022-07-31T13:19:13.644Z,95501.63
2022-07-31T13:21:49.065Z,95494.16
2022-07-31T13:24:20.896Z,95487.56
2022-07-31T13:26:49.224Z,95488.22
2022-07-31T13:29:16.476Z,95474.63
2022-07-31T13:31:43.599Z,95477.66
2022-07-31T13:34:10.428Z,95472.63
2022-07-31T13:36:39.412Z,95484.72
2022-07-31T13:39:09.615Z,95475.22
2022-07-31T13:41:38.963Z,95474.22
2022-07-31T13:44:06.602Z,95467.94
2022-07-31T13:46:33.220Z,95481.06
2022-07-31T13:49:02.213Z,95485.34
2022-07-31T13:51:29.878Z,95467.31
2022-07-31T13:53:56.773Z,95468.09
2022-07-31T13:56:42.480Z,95472.03
2022-07-31T13:59:14.016Z,95458.34
2022-07-31T14:02:13.232Z,95466.09
2022-07-31T14:04:32.171Z,95458.69
2022-07-31T14:07:04.409Z,95467.16
2022-07-31T14:09:31.880Z,95457.31
2022-07-31T14:11:58.443Z,95457.97
2022-07-31T14:14:25.096Z,95453.13
2022-07-31T14:16:51.612Z,95452.47
2022-07-31T14:19:18.159Z,95450.53
2022-07-31T14:21:55.916Z,95453.13
2022-07-31T14:24:31.276Z,95455.28
2022-07-31T14:26:57.842Z,95466.25
2022-07-31T14:29:24.477Z,95460.78
2022-07-31T14:31:51.031Z,95458.88
2022-07-31T14:34:17.645Z,95453.72
2022-07-31T14:36:44.188Z,95452.94
2022-07-31T14:39:10.710Z,95450.47
2022-07-31T14:41:37.352Z,95448.00
2022-07-31T14:44:04.243Z,95445.19
2022-07-31T14:46:30.790Z,95450.69
2022-07-31T14:48:57.461Z,95441.91
2022-07-31T14:51:23.997Z,95440.22
2022-07-31T14:53:50.724Z,95449.31
2022-07-31T14:56:30.685Z,95453.16
2022-07-31T14:59:03.884Z,95445.97
2022-07-31T15:01:31.147Z,95445.19
2022-07-31T15:03:58.127Z,95446.91
2022-07-31T15:06:55.464Z,95439.41
2022-07-31T15:09:11.895Z,95441.50
2022-07-31T15:12:00.316Z,95438.72
2022-07-31T15:14:29.373Z,95452.59
2022-07-31T15:16:55.980Z,95438.81
2022-07-31T15:19:22.588Z,95441.72
2022-07-31T15:22:10.133Z,95441.38
2022-07-31T15:24:42.369Z,95438.56
2022-07-31T15:27:13.338Z,95434.00
2022-07-31T15:30:05.424Z,95437.38
2022-07-31T15:32:27.068Z,95434.13
2022-07-31T15:34:54.002Z,95435.34
2022-07-31T15:37:20.749Z,95435.03
2022-07-31T15:40:01.518Z,95430.44
2022-07-31T15:42:34.663Z,95438.56
2022-07-31T15:45:01.322Z,95430.81
2022-07-31T15:47:27.970Z,95430.56
2022-07-31T15:49:54.648Z,95430.00
2022-07-31T15:52:21.268Z,95425.41
2022-07-31T15:54:51.894Z,95430.66
2022-07-31T15:57:20.625Z,95423.75
2022-07-31T15:59:47.199Z,95416.03
2022-07-31T16:02:13.763Z,95412.38
2022-07-31T16:04:51.629Z,95412.88
2022-07-31T16:08:29.638Z,95402.16
2022-07-31T16:10:15.664Z,95406.41
2022-07-31T16:12:47.228Z,95401.69
2022-07-31T16:15:16.122Z,95399.50
2022-07-31T16:17:43.460Z,95401.00
2022-07-31T16:20:12.550Z,95401.16
2022-07-31T16:22:41.058Z,95402.59
2022-07-31T16:25:10.051Z,95402.84
2022-07-31T16:27:38.090Z,95405.06
2022-07-31T16:30:06.661Z,95404.03
2022-07-31T16:32:33.828Z,95398.28
2022-07-31T16:35:01.473Z,95397.03
2022-07-31T16:37:52.459Z,95391.38
2022-07-31T16:40:28.274Z,95393.00
2022-07-31T16:43:47.992Z,95386.84
2022-07-31T16:45:52.775Z,95391.88
2022-07-31T16:48:19.475Z,95380.59
2022-07-31T16:50:48.393Z,95381.16
2022-07-31T16:54:10.691Z,95383.50
2022-07-31T16:56:13.456Z,95390.78
2022-07-31T16:58:40.514Z,95382.81
2022-07-31T17:01:53.881Z,95376.59
2022-07-31T17:04:01.525Z,95380.59
2022-07-31T17:06:37.987Z,95377.66
2022-07-31T17:09:17.172Z,95381.38
2022-07-31T17:11:47.231Z,95382.88
2022-07-31T17:14:14.017Z,95371.44
2022-07-31T17:16:46.343Z,95384.34
2022-07-31T17:19:13.641Z,95374.69
2022-07-31T17:21:44.320Z,95380.19
2022-07-31T17:24:15.812Z,95375.78
2022-07-31T17:26:43.832Z,95383.13
2022-07-31T17:29:10.468Z,95381.13
2022-07-31T17:31:37.119Z,95389.78
2022-07-31T17:34:08.738Z,95387.13
2022-07-31T17:36:36.164Z,95379.41
2022-07-31T17:39:02.942Z,95385.41
2022-07-31T17:41:29.493Z,95388.66
2022-07-31T17:43:56.205Z,95391.97
2022-07-31T17:46:29.948Z,95391.78
2022-07-31T17:49:01.776Z,95389.97
2022-07-31T17:51:28.493Z,95396.59
2022-07-31T17:53:59.138Z,95392.00
2022-07-31T17:56:27.095Z,95395.78
2022-07-31T17:58:54.432Z,95397.44
2022-07-31T18:01:23.408Z,95399.50
2022-07-31T18:03:52.230Z,95399.09
2022-07-31T18:06:18.816Z,95409.44
2022-07-31T18:08:45.547Z,95409.75
2022-07-31T18:11:12.092Z,95405.66
2022-07-31T18:13:47.781Z,95404.72
2022-07-31T18:16:15.955Z,95407.78
2022-07-31T18:18:42.589Z,95407.59
2022-07-31T18:21:09.331Z,95407.78
2022-07-31T18:23:36.031Z,95407.94
2022-07-31T18:26:02.761Z,95408.13
2022-07-31T18:28:29.604Z,95409.53
2022-07-31T18:30:56.244Z,95401.75
2022-07-31T18:33:22.788Z,95407.50
2022-07-31T18:35:49.900Z,95414.38
2022-07-31T18:38:16.442Z,95412.16
2022-07-31T18:40:43.023Z,95407.53
2022-07-31T18:43:09.833Z,95415.63
2022-07-31T18:45:36.573Z,95413.00
2022-07-31T18:48:08.176Z,95413.16
2022-07-31T18:50:58.984Z,95417.69
2022-07-31T18:53:21.454Z,95411.13
2022-07-31T18:55:48.189Z,95419.97
2022-07-31T18:58:14.783Z,95417.69
2022-07-31T19:00:41.386Z,95419.78
2022-07-31T19:03:08.004Z,95418.72
2022-07-31T19:05:34.571Z,95412.88
2022-07-31T19:08:01.235Z,95418.97
2022-07-31T19:10:29.646Z,95422.22
2022-07-31T19:12:57.612Z,95427.53
2022-07-31T19:15:24.174Z,95432.34
2022-07-31T19:17:50.715Z,95434.88
2022-07-31T19:20:44.548Z,95434.56
2022-07-31T19:23:04.355Z,95434.25
2022-07-31T19:25:30.969Z,95439.13
2022-07-31T19:28:17.707Z,95435.22
2022-07-31T19:30:45.940Z,95434.47
2022-07-31T19:33:12.706Z,95436.19
2022-07-31T19:35:55.333Z,95440.69
2022-07-31T19:38:22.263Z,95440.00
2022-07-31T19:40:48.793Z,95437.31
2022-07-31T19:43:15.629Z,95436.66
2022-07-31T19:46:10.658Z,95431.22
2022-07-31T19:48:35.237Z,95440.88
2022-07-31T19:51:02.420Z,95437.41
2022-07-31T19:53:29.058Z,95433.94
2022-07-31T19:55:55.705Z,95435.19
2022-07-31T19:58:22.451Z,95438.84
2022-07-31T20:00:49.054Z,95435.81
2022-07-31T20:03:15.683Z,95436.28
2022-07-31T20:05:42.288Z,95433.59
2022-07-31T20:08:08.947Z,95430.50
2022-07-31T20:10:35.460Z,95432.94
2022-07-31T20:13:02.089Z,95418.72
2022-07-31T20:15:50.969Z,95422.75
2022-07-31T20:18:26.650Z,95424.41
2022-07-31T20:20:59.209Z,95431.97
2022-07-31T20:23:26.393Z,95434.81
2022-07-31T20:25:53.190Z,95431.72
2022-07-31T20:28:19.732Z,95433.72
2022-07-31T20:30:46.625Z,95421.09
2022-07-31T20:33:13.520Z,95427.09
2022-07-31T20:35:47.657Z,95422.00
2022-07-31T20:38:17.697Z,95426.41
2022-07-31T20:40:49.926Z,95420.06
2022-07-31T20:43:21.347Z,95424.06
2022-07-31T20:45:48.093Z,95420.91
2022-07-31T20:48:15.157Z,95419.34
2022-07-31T20:50:41.780Z,95425.31
2022-07-31T20:53:09.585Z,95426.09
2022-07-31T20:55:36.260Z,95428.09
2022-07-31T20:58:02.844Z,95424.91
2022-07-31T21:00:29.618Z,95425.69
2022-07-31T21:02:56.221Z,95422.13
2022-07-31T21:05:27.057Z,95419.72
2022-07-31T21:07:53.935Z,95418.13
2022-07-31T21:10:20.698Z,95413.38
2022-07-31T21:12:47.444Z,95407.41
2022-07-31T21:15:40.671Z,95403.81
2022-07-31T21:18:00.798Z,95401.84
2022-07-31T21:20:50.122Z,95404.22
2022-07-31T21:23:17.405Z,95396.28
2022-07-31T21:25:44.286Z,95402.63
2022-07-31T21:28:11.896Z,95401.44
2022-07-31T21:30:40.073Z,95394.28
2022-07-31T21:33:08.629Z,95396.28
2022-07-31T21:35:36.212Z,95396.28
2022-07-31T21:38:04.148Z,95398.69
2022-07-31T21:40:31.980Z,95393.94
2022-07-31T21:42:58.887Z,95395.16
2022-07-31T21:45:33.104Z,95389.66
2022-07-31T21:48:14.659Z,95401.19
2022-07-31T21:50:42.702Z,95400.47
2022-07-31T21:53:09.534Z,95399.72
2022-07-31T21:55:38.026Z,95398.94
2022-07-31T21:58:05.567Z,95399.78
2022-07-31T22:00:33.071Z,95395.09
2022-07-31T22:03:00.590Z,95400.72
2022-07-31T22:05:27.249Z,95399.59
2022-07-31T22:07:53.930Z,95407.97
2022-07-31T22:10:20.633Z,95407.97
2022-07-31T22:12:48.852Z,95399.31
2022-07-31T22:15:16.052Z,95401.31
2022-07-31T22:17:43.294Z,95397.81
2022-07-31T22:20:10.626Z,95399.03
2022-07-31T22:22:37.413Z,95397.47
2022-07-31T22:25:05.210Z,95394.31
2022-07-31T22:27:32.932Z,95397.88
2022-07-31T22:30:00.522Z,95391.59
2022-07-31T22:32:27.398Z,95398.31
2022-07-31T22:34:53.999Z,95403.47
2022-07-31T22:37:20.864Z,95395.97
2022-07-31T22:39:48.651Z,95389.66
2022-07-31T22:42:15.635Z,95388.19
2022-07-31T22:44:43.535Z,95385.75
2022-07-31T22:47:10.971Z,95391.72
2022-07-31T22:49:38.238Z,95387.78
2022-07-31T22:52:06.238Z,95395.69
2022-07-31T22:54:33.655Z,95390.56
2022-07-31T22:57:00.280Z,95386.63
2022-07-31T22:59:26.829Z,95384.28
2022-07-31T23:01:53.457Z,95391.81
2022-07-31T23:04:20.019Z,95389.44
2022-07-31T23:06:46.520Z,95383.50
2022-07-31T23:09:13.061Z,95388.66
2022-07-31T23:11:39.829Z,95388.69
2022-07-31T23:14:06.416Z,95384.72
2022-07-31T23:16:33.104Z,95394.22
2022-07-31T23:18:59.897Z,95393.06
2022-07-31T23:21:26.511Z,95389.94
2022-07-31T23:23:53.424Z,95386.75
2022-07-31T23:26:22.898Z,95387.16
2022-07-31T23:28:49.843Z,95384.78
2022-07-31T23:31:17.849Z,95388.38
2022-07-31T23:33:44.878Z,95384.09
2022-07-31T23:36:12.110Z,95383.63
2022-07-31T23:38:39.089Z,95375.31
2022-07-31T23:41:05.716Z,95385.25
2022-07-31T23:43:32.487Z,95380.50
2022-07-31T23:45:59.143Z,95380.53
2022-07-31T23:48:29.292Z,95382.50
2022-07-31T23:50:57.565Z,95384.88
2022-07-31T23:53:24.262Z,95375.78
2022-07-31T23:55:51.084Z,95374.63
2022-07-31T23:58:17.707Z,95371.47
